createdAt,value
2015-07-29T00:00:12.986Z,95352
2015-07-29T00:00:31.377Z,95362
2015-07-29T00:00:49.830Z,95361
2015-07-29T00:01:08.348Z,95355
2015-07-29T00:01:26.738Z,95360
2015-07-29T00:01:45.160Z,95365
2015-07-29T00:02:03.598Z,95366
2015-07-29T00:02:22.068Z,95361
2015-07-29T00:02:40.443Z,95362
2015-07-29T00:02:58.975Z,95372
2015-07-29T00:03:17.414Z,95367
2015-07-29T00:03:35.180Z,95372
2015-07-29T00:03:53.774Z,95368
2015-07-29T00:04:12.197Z,95357
2015-07-29T00:04:30.651Z,95375
2015-07-29T00:04:49.072Z,95375
2015-07-29T00:05:07.604Z,95367
2015-07-29T00:05:25.996Z,95370
2015-07-29T00:05:44.371Z,95380
2015-07-29T00:06:02.778Z,95369
2015-07-29T00:06:21.170Z,95371
2015-07-29T00:06:39.405Z,95369
2015-07-29T00:06:57.780Z,95363
2015-07-29T00:07:16.172Z,95375
2015-07-29T00:07:34.563Z,95375
2015-07-29T00:07:52.953Z,95363
2015-07-29T00:08:11.344Z,95372
2015-07-29T00:08:29.736Z,95370
2015-07-29T00:08:48.095Z,95367
2015-07-29T00:09:06.470Z,95364
2015-07-29T00:09:24.847Z,95367
2015-07-29T00:09:43.378Z,95364
2015-07-29T00:10:01.753Z,95370
2015-07-29T00:10:20.131Z,95359
2015-07-29T00:10:38.522Z,95370
2015-07-29T00:10:56.913Z,95367
2015-07-29T00:11:15.303Z,95373
2015-07-29T00:11:33.679Z,95364
2015-07-29T00:11:52.039Z,95366
2015-07-29T00:12:10.429Z,95380
2015-07-29T00:12:28.791Z,95372
2015-07-29T00:12:47.181Z,95366
2015-07-29T00:13:04.916Z,95360
2015-07-29T00:13:23.294Z,95372
2015-07-29T00:13:41.684Z,95366
2015-07-29T00:14:00.090Z,95374
2015-07-29T00:14:18.481Z,95366
2015-07-29T00:14:36.858Z,95368
2015-07-29T00:14:55.233Z,95373
2015-07-29T00:15:13.624Z,95370
2015-07-29T00:15:32.016Z,95370
2015-07-29T00:15:50.391Z,95362
2015-07-29T00:16:08.766Z,95360
2015-07-29T00:16:27.095Z,95382
2015-07-29T00:16:45.611Z,95371
2015-07-29T00:17:04.049Z,95365
2015-07-29T00:17:22.424Z,95362
2015-07-29T00:17:40.785Z,95362
2015-07-29T00:17:59.160Z,95379
2015-07-29T00:18:17.535Z,95370
2015-07-29T00:18:35.912Z,95366
2015-07-29T00:18:54.303Z,95374
2015-07-29T00:19:12.678Z,95367
2015-07-29T00:19:31.070Z,95367
2015-07-29T00:19:49.445Z,95368
2015-07-29T00:20:07.820Z,95360
2015-07-29T00:20:26.055Z,95363
2015-07-29T00:20:44.447Z,95363
2015-07-29T00:21:02.807Z,95360
2015-07-29T00:21:21.197Z,95360
2015-07-29T00:21:39.574Z,95368
2015-07-29T00:21:57.949Z,95353
2015-07-29T00:22:16.340Z,95367
2015-07-29T00:22:34.732Z,95365
2015-07-29T00:22:53.107Z,95370
2015-07-29T00:23:11.482Z,95369
2015-07-29T00:23:29.873Z,95361
2015-07-29T00:23:48.250Z,95362
2015-07-29T00:24:06.625Z,95368
2015-07-29T00:24:25.000Z,95365
2015-07-29T00:24:43.377Z,95362
2015-07-29T00:25:01.768Z,95354
2015-07-29T00:25:20.143Z,95365
2015-07-29T00:25:38.520Z,95353
2015-07-29T00:25:56.910Z,95361
2015-07-29T00:26:15.301Z,95359
2015-07-29T00:26:33.694Z,95365
2015-07-29T00:26:52.069Z,95359
2015-07-29T00:27:10.444Z,95351
2015-07-29T00:27:28.834Z,95351
2015-07-29T00:27:47.211Z,95351
2015-07-29T00:28:05.586Z,95363
2015-07-29T00:28:23.961Z,95355
2015-07-29T00:28:42.338Z,95357
2015-07-29T00:29:00.713Z,95357
2015-07-29T00:29:22.088Z,95360
2015-07-29T00:29:40.480Z,95360
2015-07-29T00:29:58.855Z,95365
2015-07-29T00:30:17.214Z,95363
2015-07-29T00:30:35.605Z,95371
2015-07-29T00:30:53.326Z,95368
2015-07-29T00:31:11.701Z,95359
2015-07-29T00:31:30.091Z,95373
2015-07-29T00:31:48.469Z,95376
2015-07-29T00:32:06.844Z,95359
2015-07-29T00:32:25.250Z,95369
2015-07-29T00:32:43.627Z,95366
2015-07-29T00:33:02.018Z,95366
2015-07-29T00:33:20.393Z,95379
2015-07-29T00:33:38.770Z,95388
2015-07-29T00:33:57.145Z,95380
2015-07-29T00:34:15.504Z,95378
2015-07-29T00:34:33.879Z,95380
2015-07-29T00:34:52.256Z,95376
2015-07-29T00:35:10.647Z,95373
2015-07-29T00:35:29.006Z,95373
2015-07-29T00:35:46.743Z,95381
2015-07-29T00:36:05.133Z,95376
2015-07-29T00:36:23.524Z,95376
2015-07-29T00:36:41.909Z,95373
2015-07-29T00:37:00.268Z,95376
2015-07-29T00:37:18.643Z,95376
2015-07-29T00:37:37.034Z,95382
2015-07-29T00:37:55.448Z,95373
2015-07-29T00:38:13.823Z,95365
2015-07-29T00:38:32.198Z,95367
2015-07-29T00:38:50.628Z,95364
2015-07-29T00:39:09.003Z,95370
2015-07-29T00:39:27.393Z,95367
2015-07-29T00:39:45.612Z,95367
2015-07-29T00:40:04.058Z,95364
2015-07-29T00:40:22.433Z,95364
2015-07-29T00:40:40.808Z,95361
2015-07-29T00:40:59.222Z,95355
2015-07-29T00:41:17.597Z,95360
2015-07-29T00:41:35.972Z,95355
2015-07-29T00:41:54.392Z,95354
2015-07-29T00:42:12.767Z,95349
2015-07-29T00:42:31.142Z,95351
2015-07-29T00:42:49.533Z,95354
2015-07-29T00:43:07.783Z,95363
2015-07-29T00:43:26.174Z,95340
2015-07-29T00:43:44.580Z,95349
2015-07-29T00:44:03.001Z,95349
2015-07-29T00:44:21.376Z,95354
2015-07-29T00:44:39.767Z,95341
2015-07-29T00:44:58.172Z,95350
2015-07-29T00:45:16.391Z,95347
2015-07-29T00:45:34.782Z,95347
2015-07-29T00:45:53.187Z,95342
2015-07-29T00:46:11.578Z,95351
2015-07-29T00:46:29.953Z,95345
2015-07-29T00:46:48.328Z,95348
2015-07-29T00:47:06.715Z,95359
2015-07-29T00:47:25.106Z,95358
2015-07-29T00:47:43.496Z,95353
2015-07-29T00:48:01.878Z,95361
2015-07-29T00:48:19.597Z,95360
2015-07-29T00:48:37.988Z,95368
2015-07-29T00:48:56.378Z,95362
2015-07-29T00:49:14.776Z,95360
2015-07-29T00:49:33.166Z,95363
2015-07-29T00:49:51.573Z,95364
2015-07-29T00:50:09.969Z,95372
2015-07-29T00:50:28.360Z,95358
2015-07-29T00:50:46.735Z,95359
2015-07-29T00:51:05.133Z,95361
2015-07-29T00:51:23.523Z,95367
2015-07-29T00:51:41.898Z,95363
2015-07-29T00:52:00.273Z,95347
2015-07-29T00:52:18.653Z,95352
2015-07-29T00:52:37.044Z,95352
2015-07-29T00:52:55.419Z,95350
2015-07-29T00:53:13.156Z,95352
2015-07-29T00:53:31.531Z,95349
2015-07-29T00:53:49.922Z,95349
2015-07-29T00:54:08.301Z,95335
2015-07-29T00:54:26.691Z,95333
2015-07-29T00:54:45.066Z,95330
2015-07-29T00:55:03.457Z,95334
2015-07-29T00:55:21.835Z,95334
2015-07-29T00:55:40.194Z,95328
2015-07-29T00:55:58.585Z,95331
2015-07-29T00:56:16.964Z,95331
2015-07-29T00:56:35.339Z,95328
2015-07-29T00:56:53.745Z,95322
2015-07-29T00:57:12.122Z,95330
2015-07-29T00:57:30.513Z,95324
2015-07-29T00:57:48.904Z,95324
2015-07-29T00:58:07.279Z,95316
2015-07-29T00:58:25.673Z,95321
2015-07-29T00:58:44.064Z,95316
2015-07-29T00:59:02.439Z,95324
2015-07-29T00:59:20.160Z,95322
2015-07-29T00:59:38.550Z,95336
2015-07-29T00:59:56.941Z,95331
2015-07-29T01:00:15.350Z,95336
2015-07-29T01:00:33.725Z,95336
2015-07-29T01:00:52.100Z,95342
2015-07-29T01:01:10.475Z,95334
2015-07-29T01:01:28.196Z,95342
2015-07-29T01:01:46.586Z,95342
2015-07-29T01:02:04.961Z,95343
2015-07-29T01:02:22.699Z,95348
2015-07-29T01:02:41.074Z,95339
2015-07-29T01:02:59.464Z,95339
2015-07-29T01:03:17.856Z,95345
2015-07-29T01:03:36.231Z,95339
2015-07-29T01:03:54.606Z,95347
2015-07-29T01:04:12.997Z,95341
2015-07-29T01:04:30.734Z,95341
2015-07-29T01:04:49.109Z,95347
2015-07-29T01:05:07.484Z,95347
2015-07-29T01:05:25.860Z,95352
2015-07-29T01:05:44.235Z,95349
2015-07-29T01:06:02.610Z,95352
2015-07-29T01:06:21.003Z,95341
2015-07-29T01:06:39.393Z,95341
2015-07-29T01:06:57.784Z,95356
2015-07-29T01:07:16.190Z,95350
2015-07-29T01:07:34.583Z,95347
2015-07-29T01:07:53.098Z,95342
2015-07-29T01:08:11.473Z,95342
2015-07-29T01:08:29.850Z,95345
2015-07-29T01:08:48.319Z,95346
2015-07-29T01:09:06.772Z,95343
2015-07-29T01:09:25.213Z,95342
2015-07-29T01:09:43.619Z,95339
2015-07-29T01:10:02.025Z,95342
2015-07-29T01:10:20.603Z,95353
2015-07-29T01:10:39.151Z,95348
2015-07-29T01:10:57.620Z,95351
2015-07-29T01:11:16.073Z,95343
2015-07-29T01:11:34.622Z,95340
2015-07-29T01:11:53.028Z,95340
2015-07-29T01:12:11.606Z,95346
2015-07-29T01:12:30.000Z,95354
2015-07-29T01:12:48.406Z,95354
2015-07-29T01:13:06.797Z,95348
2015-07-29T01:13:25.235Z,95348
2015-07-29T01:13:43.610Z,95351
2015-07-29T01:14:02.126Z,95347
2015-07-29T01:14:20.642Z,95352
2015-07-29T01:14:39.034Z,95363
2015-07-29T01:14:57.409Z,95347
2015-07-29T01:15:15.987Z,95347
2015-07-29T01:15:34.474Z,95347
2015-07-29T01:15:52.833Z,95353
2015-07-29T01:16:11.239Z,95349
2015-07-29T01:16:29.820Z,95342
2015-07-29T01:16:48.288Z,95344
2015-07-29T01:17:06.695Z,95344
2015-07-29T01:17:25.070Z,95341
2015-07-29T01:17:43.572Z,95341
2015-07-29T01:18:01.931Z,95336
2015-07-29T01:18:20.478Z,95341
2015-07-29T01:18:38.855Z,95346
2015-07-29T01:18:57.261Z,95340
2015-07-29T01:19:15.792Z,95336
2015-07-29T01:19:34.169Z,95336
2015-07-29T01:19:52.451Z,95339
2015-07-29T01:20:10.857Z,95336
2015-07-29T01:20:29.357Z,95339
2015-07-29T01:20:47.812Z,95348
2015-07-29T01:21:06.171Z,95338
2015-07-29T01:21:24.703Z,95349
2015-07-29T01:21:43.095Z,95343
2015-07-29T01:22:01.517Z,95348
2015-07-29T01:22:20.126Z,95354
2015-07-29T01:22:38.519Z,95356
2015-07-29T01:22:56.910Z,95362
2015-07-29T01:23:15.394Z,95362
2015-07-29T01:23:34.222Z,95367
2015-07-29T01:23:52.787Z,95367
2015-07-29T01:24:11.255Z,95372
2015-07-29T01:24:30.021Z,95372
2015-07-29T01:24:48.414Z,95363
2015-07-29T01:25:06.351Z,95369
2015-07-29T01:25:24.820Z,95352
2015-07-29T01:25:43.400Z,95361
2015-07-29T01:26:01.853Z,95355
2015-07-29T01:26:20.259Z,95352
2015-07-29T01:26:38.697Z,95357
2015-07-29T01:26:57.402Z,95351
2015-07-29T01:27:15.855Z,95348
2015-07-29T01:27:34.308Z,95343
2015-07-29T01:27:52.669Z,95351
2015-07-29T01:28:11.137Z,95351
2015-07-29T01:28:29.544Z,95348
2015-07-29T01:28:47.922Z,95342
2015-07-29T01:29:06.359Z,95339
2015-07-29T01:29:24.922Z,95339
2015-07-29T01:29:42.906Z,95339
2015-07-29T01:30:01.470Z,95348
2015-07-29T01:30:20.016Z,95346
2015-07-29T01:30:38.407Z,95355
2015-07-29T01:30:56.848Z,95347
2015-07-29T01:31:15.285Z,95362
2015-07-29T01:31:33.801Z,95351
2015-07-29T01:31:52.286Z,95349
2015-07-29T01:32:10.911Z,95343
2015-07-29T01:32:29.349Z,95368
2015-07-29T01:32:47.739Z,95359
2015-07-29T01:33:06.335Z,95357
2015-07-29T01:33:24.726Z,95354
2015-07-29T01:33:43.116Z,95354
2015-07-29T01:34:01.510Z,95357
2015-07-29T01:34:19.932Z,95354
2015-07-29T01:34:38.400Z,95354
2015-07-29T01:34:57.012Z,95348
2015-07-29T01:35:15.387Z,95352
2015-07-29T01:35:33.793Z,95343
2015-07-29T01:35:52.371Z,95354
2015-07-29T01:36:10.919Z,95340
2015-07-29T01:36:29.497Z,95343
2015-07-29T01:36:47.513Z,95351
2015-07-29T01:37:06.202Z,95347
2015-07-29T01:37:24.796Z,95353
2015-07-29T01:37:43.296Z,95342
2015-07-29T01:38:01.814Z,95345
2015-07-29T01:38:20.204Z,95345
2015-07-29T01:38:38.595Z,95353
2015-07-29T01:38:56.970Z,95351
2015-07-29T01:39:15.456Z,95352
2015-07-29T01:39:33.972Z,95349
2015-07-29T01:39:52.441Z,95352
2015-07-29T01:40:10.818Z,95349
2015-07-29T01:40:29.302Z,95356
2015-07-29T01:40:47.708Z,95353
2015-07-29T01:41:06.304Z,95345
2015-07-29T01:41:24.835Z,95341
2015-07-29T01:41:43.210Z,95343
2015-07-29T01:42:01.663Z,95337
2015-07-29T01:42:20.400Z,95343
2015-07-29T01:42:38.775Z,95334
2015-07-29T01:42:57.353Z,95337
2015-07-29T01:43:15.730Z,95331
2015-07-29T01:43:34.121Z,95333
2015-07-29T01:43:52.667Z,95330
2015-07-29T01:44:11.263Z,95330
2015-07-29T01:44:29.951Z,95331
2015-07-29T01:44:48.560Z,95345
2015-07-29T01:45:06.935Z,95334
2015-07-29T01:45:25.343Z,95343
2015-07-29T01:45:43.062Z,95353
2015-07-29T01:46:01.812Z,95345
2015-07-29T01:46:20.470Z,95345
2015-07-29T01:46:38.845Z,95351
2015-07-29T01:46:57.252Z,95343
2015-07-29T01:47:15.675Z,95346
2015-07-29T01:47:34.254Z,95351
2015-07-29T01:47:52.675Z,95360
2015-07-29T01:48:11.175Z,95343
2015-07-29T01:48:28.881Z,95346
2015-07-29T01:48:47.302Z,95344
2015-07-29T01:49:05.802Z,95360
2015-07-29T01:49:24.351Z,95355
2015-07-29T01:49:42.789Z,95351
2015-07-29T01:50:01.461Z,95354
2015-07-29T01:50:19.900Z,95346
2015-07-29T01:50:38.431Z,95351
2015-07-29T01:50:56.963Z,95365
2015-07-29T01:51:15.824Z,95353
2015-07-29T01:51:34.371Z,95347
2015-07-29T01:51:52.793Z,95347
2015-07-29T01:52:11.168Z,95355
2015-07-29T01:52:29.576Z,95351
2015-07-29T01:52:48.170Z,95357
2015-07-29T01:53:06.732Z,95343
2015-07-29T01:53:25.203Z,95345
2015-07-29T01:53:43.594Z,95350
2015-07-29T01:54:02.125Z,95344
2015-07-29T01:54:20.643Z,95353
2015-07-29T01:54:39.283Z,95344
2015-07-29T01:54:57.721Z,95347
2015-07-29T01:55:16.174Z,95347
2015-07-29T01:55:34.550Z,95353
2015-07-29T01:55:52.909Z,95347
2015-07-29T01:56:11.706Z,95355
2015-07-29T01:56:30.240Z,95351
2015-07-29T01:56:48.803Z,95363
2015-07-29T01:57:07.365Z,95351
2015-07-29T01:57:25.820Z,95355
2015-07-29T01:57:44.320Z,95346
2015-07-29T01:58:02.711Z,95349
2015-07-29T01:58:21.086Z,95353
2015-07-29T01:58:39.493Z,95356
2015-07-29T01:58:58.103Z,95352
2015-07-29T01:59:16.775Z,95361
2015-07-29T01:59:35.606Z,95353
2015-07-29T01:59:54.121Z,95351
2015-07-29T02:00:12.512Z,95348
2015-07-29T02:00:31.263Z,95350
2015-07-29T02:00:49.685Z,95353
2015-07-29T02:01:08.091Z,95344
2015-07-29T02:01:26.591Z,95349
2015-07-29T02:01:45.062Z,95349
2015-07-29T02:02:03.546Z,95349
2015-07-29T02:02:22.234Z,95347
2015-07-29T02:02:40.596Z,95344
2015-07-29T02:02:59.174Z,95347
2015-07-29T02:03:17.815Z,95345
2015-07-29T02:03:36.347Z,95342
2015-07-29T02:03:54.722Z,95342
2015-07-29T02:04:13.238Z,95342
2015-07-29T02:04:31.691Z,95341
2015-07-29T02:04:50.115Z,95341
2015-07-29T02:05:08.568Z,95336
2015-07-29T02:05:27.099Z,95348
2015-07-29T02:05:45.570Z,95339
2015-07-29T02:06:04.070Z,95345
2015-07-29T02:06:22.539Z,95342
2015-07-29T02:06:40.978Z,95336
2015-07-29T02:06:59.431Z,95339
2015-07-29T02:07:18.197Z,95338
2015-07-29T02:07:36.619Z,95338
2015-07-29T02:07:55.277Z,95332
2015-07-29T02:08:13.902Z,95346
2015-07-29T02:08:32.371Z,95341
2015-07-29T02:08:50.826Z,95338
2015-07-29T02:09:09.201Z,95336
2015-07-29T02:09:27.576Z,95342
2015-07-29T02:09:45.937Z,95339
2015-07-29T02:10:04.484Z,95339
2015-07-29T02:10:22.859Z,95342
2015-07-29T02:10:41.361Z,95344
2015-07-29T02:10:59.970Z,95342
2015-07-29T02:11:18.424Z,95345
2015-07-29T02:11:36.814Z,95345
2015-07-29T02:11:55.566Z,95334
2015-07-29T02:12:14.035Z,95339
2015-07-29T02:12:32.426Z,95355
2015-07-29T02:12:51.021Z,95343
2015-07-29T02:13:09.506Z,95338
2015-07-29T02:13:27.959Z,95341
2015-07-29T02:13:46.555Z,95342
2015-07-29T02:14:05.180Z,95340
2015-07-29T02:14:23.711Z,95340
2015-07-29T02:14:42.164Z,95342
2015-07-29T02:15:00.618Z,95336
2015-07-29T02:15:19.071Z,95335
2015-07-29T02:15:37.493Z,95335
2015-07-29T02:15:55.902Z,95347
2015-07-29T02:16:14.512Z,95332
2015-07-29T02:16:33.230Z,95337
2015-07-29T02:16:51.420Z,95337
2015-07-29T02:17:09.795Z,95340
2015-07-29T02:17:28.357Z,95340
2015-07-29T02:17:46.826Z,95330
2015-07-29T02:18:05.202Z,95333
2015-07-29T02:18:23.687Z,95332
2015-07-29T02:18:42.077Z,95335
2015-07-29T02:19:00.565Z,95330
2015-07-29T02:19:18.986Z,95327
2015-07-29T02:19:37.502Z,95327
2015-07-29T02:19:56.066Z,95325
2015-07-29T02:20:14.503Z,95339
2015-07-29T02:20:33.097Z,95333
2015-07-29T02:20:51.537Z,95327
2015-07-29T02:21:10.069Z,95330
2015-07-29T02:21:28.631Z,95335
2015-07-29T02:21:47.240Z,95338
2015-07-29T02:22:05.742Z,95340
2015-07-29T02:22:24.164Z,95338
2015-07-29T02:22:42.602Z,95338
2015-07-29T02:23:00.993Z,95332
2015-07-29T02:23:18.806Z,95343
2015-07-29T02:23:37.275Z,95335
2015-07-29T02:23:55.731Z,95338
2015-07-29T02:24:14.200Z,95328
2015-07-29T02:24:32.715Z,95331
2015-07-29T02:24:50.965Z,95332
2015-07-29T02:25:09.279Z,95335
2015-07-29T02:25:27.669Z,95328
2015-07-29T02:25:46.201Z,95337
2015-07-29T02:26:04.593Z,95335
2015-07-29T02:26:23.062Z,95331
2015-07-29T02:26:41.734Z,95328
2015-07-29T02:27:00.423Z,95327
2015-07-29T02:27:18.814Z,95327
2015-07-29T02:27:37.345Z,95321
2015-07-29T02:27:55.267Z,95325
2015-07-29T02:28:13.708Z,95328
2015-07-29T02:28:32.114Z,95319
2015-07-29T02:28:50.489Z,95332
2015-07-29T02:29:08.865Z,95327
2015-07-29T02:29:27.505Z,95327
2015-07-29T02:29:46.365Z,95329
2015-07-29T02:30:04.789Z,95326
2015-07-29T02:30:23.539Z,95326
2015-07-29T02:30:42.117Z,95316
2015-07-29T02:31:00.554Z,95320
2015-07-29T02:31:19.103Z,95325
2015-07-29T02:31:37.041Z,95322
2015-07-29T02:31:55.603Z,95325
2015-07-29T02:32:13.965Z,95319
2015-07-29T02:32:32.496Z,95319
2015-07-29T02:32:50.902Z,95316
2015-07-29T02:33:08.763Z,95316
2015-07-29T02:33:27.170Z,95317
2015-07-29T02:33:45.732Z,95317
2015-07-29T02:34:03.513Z,95320
2015-07-29T02:34:21.875Z,95320
2015-07-29T02:34:40.297Z,95323
2015-07-29T02:34:58.703Z,95323
2015-07-29T02:35:17.252Z,95326
2015-07-29T02:35:35.658Z,95317
2015-07-29T02:35:54.299Z,95314
2015-07-29T02:36:12.801Z,95323
2015-07-29T02:36:31.301Z,95320
2015-07-29T02:36:49.723Z,95321
2015-07-29T02:37:08.271Z,95323
2015-07-29T02:37:26.678Z,95327
2015-07-29T02:37:45.240Z,95316
2015-07-29T02:38:03.709Z,95322
2015-07-29T02:38:22.305Z,95327
2015-07-29T02:38:40.930Z,95320
2015-07-29T02:38:59.305Z,95317
2015-07-29T02:39:17.682Z,95322
2015-07-29T02:39:36.041Z,95322
2015-07-29T02:39:54.416Z,95321
2015-07-29T02:40:12.871Z,95319
2015-07-29T02:40:31.246Z,95316
2015-07-29T02:40:49.559Z,95318
2015-07-29T02:41:07.996Z,95323
2015-07-29T02:41:26.420Z,95316
2015-07-29T02:41:44.858Z,95325
2015-07-29T02:42:03.311Z,95320
2015-07-29T02:42:21.843Z,95322
2015-07-29T02:42:40.312Z,95321
2015-07-29T02:42:58.874Z,95321
2015-07-29T02:43:17.283Z,95312
2015-07-29T02:43:35.846Z,95313
2015-07-29T02:43:54.377Z,95307
2015-07-29T02:44:13.002Z,95322
2015-07-29T02:44:32.301Z,95314
2015-07-29T02:44:50.817Z,95311
2015-07-29T02:45:08.989Z,95313
2015-07-29T02:45:27.053Z,95318
2015-07-29T02:45:45.428Z,95317
2015-07-29T02:46:03.819Z,95320
2015-07-29T02:46:22.210Z,95312
2015-07-29T02:46:40.726Z,95311
2015-07-29T02:46:59.351Z,95322
2015-07-29T02:47:17.710Z,95304
2015-07-29T02:47:36.307Z,95323
2015-07-29T02:47:54.760Z,95314
2015-07-29T02:48:13.120Z,95317
2015-07-29T02:48:31.527Z,95312
2015-07-29T02:48:49.902Z,95317
2015-07-29T02:49:08.261Z,95320
2015-07-29T02:49:26.716Z,95311
2015-07-29T02:49:45.138Z,95319
2015-07-29T02:50:03.529Z,95325
2015-07-29T02:50:21.982Z,95314
2015-07-29T02:50:40.406Z,95319
2015-07-29T02:50:58.828Z,95317
2015-07-29T02:51:17.218Z,95312
2015-07-29T02:51:34.970Z,95317
2015-07-29T02:51:53.361Z,95318
2015-07-29T02:52:12.017Z,95315
2015-07-29T02:52:30.472Z,95312
2015-07-29T02:52:49.066Z,95315
2015-07-29T02:53:07.425Z,95306
2015-07-29T02:53:25.894Z,95311
2015-07-29T02:53:44.271Z,95309
2015-07-29T02:54:02.662Z,95322
2015-07-29T02:54:21.099Z,95319
2015-07-29T02:54:39.602Z,95307
2015-07-29T02:54:58.071Z,95324
2015-07-29T02:55:16.509Z,95309
2015-07-29T02:55:34.978Z,95319
2015-07-29T02:55:53.338Z,95313
2015-07-29T02:56:11.713Z,95313
2015-07-29T02:56:30.135Z,95319
2015-07-29T02:56:48.543Z,95326
2015-07-29T02:57:06.949Z,95315
2015-07-29T02:57:25.340Z,95315
2015-07-29T02:57:43.920Z,95314
2015-07-29T02:58:02.435Z,95314
2015-07-29T02:58:20.842Z,95312
2015-07-29T02:58:39.234Z,95317
2015-07-29T02:58:57.641Z,95314
2015-07-29T02:59:16.016Z,95316
2015-07-29T02:59:34.391Z,95322
2015-07-29T02:59:52.814Z,95313
2015-07-29T03:00:11.393Z,95310
2015-07-29T03:00:29.752Z,95304
2015-07-29T03:00:48.176Z,95319
2015-07-29T03:01:06.691Z,95316
2015-07-29T03:01:25.066Z,95317
2015-07-29T03:01:43.522Z,95323
2015-07-29T03:02:01.897Z,95312
2015-07-29T03:02:20.256Z,95309
2015-07-29T03:02:38.678Z,95315
2015-07-29T03:02:57.070Z,95312
2015-07-29T03:03:15.445Z,95321
2015-07-29T03:03:33.820Z,95307
2015-07-29T03:03:52.213Z,95324
2015-07-29T03:04:10.619Z,95317
2015-07-29T03:04:29.026Z,95319
2015-07-29T03:04:47.387Z,95308
2015-07-29T03:05:05.809Z,95320
2015-07-29T03:05:24.246Z,95312
2015-07-29T03:05:42.668Z,95315
2015-07-29T03:06:01.092Z,95306
2015-07-29T03:06:19.451Z,95315
2015-07-29T03:06:37.826Z,95320
2015-07-29T03:06:56.187Z,95315
2015-07-29T03:07:14.562Z,95307
2015-07-29T03:07:33.124Z,95305
2015-07-29T03:07:51.690Z,95313
2015-07-29T03:08:10.096Z,95316
2015-07-29T03:08:28.580Z,95308
2015-07-29T03:08:46.955Z,95317
2015-07-29T03:09:05.457Z,95305
2015-07-29T03:09:23.864Z,95307
2015-07-29T03:09:42.239Z,95316
2015-07-29T03:10:00.647Z,95308
2015-07-29T03:10:19.022Z,95313
2015-07-29T03:10:37.475Z,95307
2015-07-29T03:10:55.852Z,95310
2015-07-29T03:11:13.586Z,95313
2015-07-29T03:11:31.946Z,95311
2015-07-29T03:11:50.430Z,95319
2015-07-29T03:12:08.792Z,95311
2015-07-29T03:12:27.213Z,95305
2015-07-29T03:12:45.588Z,95313
2015-07-29T03:13:04.278Z,95300
2015-07-29T03:13:22.715Z,95298
2015-07-29T03:13:41.075Z,95303
2015-07-29T03:13:59.671Z,95305
2015-07-29T03:14:18.124Z,95308
2015-07-29T03:14:36.608Z,95299
2015-07-29T03:14:54.967Z,95299
2015-07-29T03:15:13.359Z,95298
2015-07-29T03:15:31.718Z,95307
2015-07-29T03:15:50.140Z,95302
2015-07-29T03:16:08.628Z,95302
2015-07-29T03:16:27.143Z,95298
2015-07-29T03:16:45.737Z,95307
2015-07-29T03:17:04.347Z,95304
2015-07-29T03:17:22.722Z,95299
2015-07-29T03:17:41.097Z,95302
2015-07-29T03:17:59.554Z,95309
2015-07-29T03:18:18.100Z,95312
2015-07-29T03:18:36.850Z,95297
2015-07-29T03:18:55.257Z,95306
2015-07-29T03:19:13.837Z,95293
2015-07-29T03:19:32.274Z,95309
2015-07-29T03:19:50.712Z,95293
2015-07-29T03:20:09.120Z,95303
2015-07-29T03:20:27.589Z,95302
2015-07-29T03:20:46.433Z,95302
2015-07-29T03:21:04.793Z,95301
2015-07-29T03:21:23.449Z,95307
2015-07-29T03:21:41.918Z,95301
2015-07-29T03:22:00.355Z,95298
2015-07-29T03:22:18.904Z,95297
2015-07-29T03:22:37.357Z,95303
2015-07-29T03:22:55.748Z,95295
2015-07-29T03:23:14.234Z,95293
2015-07-29T03:23:32.688Z,95294
2015-07-29T03:23:51.125Z,95302
2015-07-29T03:24:09.596Z,95294
2015-07-29T03:24:27.971Z,95293
2015-07-29T03:24:46.533Z,95299
2015-07-29T03:25:05.018Z,95294
2015-07-29T03:25:23.598Z,95295
2015-07-29T03:25:42.067Z,95288
2015-07-29T03:26:00.426Z,95290
2015-07-29T03:26:18.975Z,95293
2015-07-29T03:26:37.615Z,95293
2015-07-29T03:26:56.069Z,95295
2015-07-29T03:27:14.680Z,95300
2015-07-29T03:27:33.055Z,95295
2015-07-29T03:27:51.414Z,95301
2015-07-29T03:28:09.914Z,95298
2015-07-29T03:28:28.432Z,95293
2015-07-29T03:28:46.791Z,95297
2015-07-29T03:29:05.198Z,95293
2015-07-29T03:29:23.668Z,95293
2015-07-29T03:29:41.559Z,95293
2015-07-29T03:29:59.996Z,95285
2015-07-29T03:30:18.435Z,95295
2015-07-29T03:30:37.013Z,95284
2015-07-29T03:30:55.372Z,95294
2015-07-29T03:31:13.826Z,95289
2015-07-29T03:31:32.203Z,95295
2015-07-29T03:31:50.765Z,95295
2015-07-29T03:32:09.187Z,95298
2015-07-29T03:32:27.642Z,95293
2015-07-29T03:32:46.111Z,95295
2015-07-29T03:33:04.580Z,95293
2015-07-29T03:33:23.036Z,95291
2015-07-29T03:33:41.473Z,95295
2015-07-29T03:33:59.942Z,95290
2015-07-29T03:34:18.301Z,95288
2015-07-29T03:34:36.850Z,95288
2015-07-29T03:34:55.350Z,95296
2015-07-29T03:35:13.928Z,95291
2015-07-29T03:35:32.304Z,95288
2015-07-29T03:35:50.726Z,95293
2015-07-29T03:36:09.226Z,95293
2015-07-29T03:36:27.604Z,95295
2015-07-29T03:36:46.010Z,95295
2015-07-29T03:37:04.042Z,95291
2015-07-29T03:37:22.745Z,95295
2015-07-29T03:37:41.200Z,95289
2015-07-29T03:37:59.747Z,95292
2015-07-29T03:38:18.341Z,95292
2015-07-29T03:38:36.748Z,95292
2015-07-29T03:38:55.279Z,95292
2015-07-29T03:39:13.795Z,95292
2015-07-29T03:39:32.234Z,95291
2015-07-29T03:39:50.797Z,95295
2015-07-29T03:40:09.406Z,95293
2015-07-29T03:40:27.972Z,95289
2015-07-29T03:40:46.362Z,95293
2015-07-29T03:41:04.768Z,95289
2015-07-29T03:41:23.206Z,95293
2015-07-29T03:41:41.598Z,95300
2015-07-29T03:42:00.004Z,95300
2015-07-29T03:42:18.535Z,95294
2015-07-29T03:42:37.021Z,95299
2015-07-29T03:42:55.396Z,95292
2015-07-29T03:43:13.834Z,95290
2015-07-29T03:43:32.492Z,95285
2015-07-29T03:43:50.930Z,95294
2015-07-29T03:44:09.336Z,95287
2015-07-29T03:44:27.773Z,95289
2015-07-29T03:44:46.511Z,95294
2015-07-29T03:45:05.058Z,95297
2015-07-29T03:45:23.651Z,95289
2015-07-29T03:45:42.215Z,95283
2015-07-29T03:46:00.590Z,95293
2015-07-29T03:46:19.012Z,95289
2015-07-29T03:46:37.623Z,95291
2015-07-29T03:46:55.998Z,95295
2015-07-29T03:47:14.404Z,95291
2015-07-29T03:47:32.826Z,95283
2015-07-29T03:47:51.266Z,95288
2015-07-29T03:48:09.688Z,95286
2015-07-29T03:48:28.063Z,95292
2015-07-29T03:48:46.612Z,95293
2015-07-29T03:49:05.033Z,95290
2015-07-29T03:49:23.674Z,95285
2015-07-29T03:49:42.192Z,95287
2015-07-29T03:50:00.582Z,95289
2015-07-29T03:50:19.004Z,95293
2015-07-29T03:50:37.616Z,95287
2015-07-29T03:50:55.928Z,95290
2015-07-29T03:51:14.366Z,95287
2015-07-29T03:51:32.741Z,95289
2015-07-29T03:51:51.133Z,95292
2015-07-29T03:52:09.368Z,95294
2015-07-29T03:52:27.571Z,95300
2015-07-29T03:52:50.948Z,95293
2015-07-29T03:53:09.479Z,95291
2015-07-29T03:53:27.948Z,95293
2015-07-29T03:53:46.465Z,95300
2015-07-29T03:54:04.887Z,95287
2015-07-29T03:54:23.418Z,95294
2015-07-29T03:54:41.840Z,95286
2015-07-29T03:55:00.216Z,95293
2015-07-29T03:55:18.544Z,95293
2015-07-29T03:55:36.451Z,95292
2015-07-29T03:55:54.843Z,95290
2015-07-29T03:56:13.703Z,95294
2015-07-29T03:56:32.343Z,95281
2015-07-29T03:56:50.799Z,95293
2015-07-29T03:57:09.221Z,95291
2015-07-29T03:57:27.737Z,95293